sensor_id;sensor_type;location;lat;lon;timestamp;P1;durP1;ratioP1;P2;durP2;ratioP2
15043;SDS011;7619;48.562;8.910;2022-07-11T00:01:47;1.20;;;0.90;;
15043;SDS011;7619;48.562;8.910;2022-07-11T00:04:14;2.30;;;0.90;;
15043;SDS011;7619;48.562;8.910;2022-07-11T00:06:43;0.87;;;0.87;;
15043;SDS011;7619;48.562;8.910;2022-07-11T00:09:12;1.03;;;1.03;;
15043;SDS011;7619;48.562;8.910;2022-07-11T00:11:40;0.93;;;0.83;;
15043;SDS011;7619;48.562;8.910;2022-07-11T00:14:10;0.93;;;0.93;;
15043;SDS011;7619;48.562;8.910;2022-07-11T00:16:37;1.93;;;0.90;;
15043;SDS011;7619;48.562;8.910;2022-07-11T00:19:06;1.70;;;1.00;;
15043;SDS011;7619;48.562;8.910;2022-07-11T00:21:35;0.80;;;0.80;;
15043;SDS011;7619;48.562;8.910;2022-07-11T00:24:04;1.07;;;0.97;;
15043;SDS011;7619;48.562;8.910;2022-07-11T00:26:33;0.87;;;0.80;;
15043;SDS011;7619;48.562;8.910;2022-07-11T00:29:02;0.53;;;0.53;;
15043;SDS011;7619;48.562;8.910;2022-07-11T00:31:31;1.13;;;1.00;;
15043;SDS011;7619;48.562;8.910;2022-07-11T00:34:00;1.93;;;1.00;;
15043;SDS011;7619;48.562;8.910;2022-07-11T00:36:29;1.00;;;0.90;;
15043;SDS011;7619;48.562;8.910;2022-07-11T00:38:58;1.03;;;0.90;;
15043;SDS011;7619;48.562;8.910;2022-07-11T00:41:26;2.07;;;0.87;;
15043;SDS011;7619;48.562;8.910;2022-07-11T00:43:55;1.30;;;1.20;;
15043;SDS011;7619;48.562;8.910;2022-07-11T00:46:26;1.43;;;1.00;;
15043;SDS011;7619;48.562;8.910;2022-07-11T00:48:55;2.43;;;1.30;;
15043;SDS011;7619;48.562;8.910;2022-07-11T00:51:25;1.70;;;1.20;;
15043;SDS011;7619;48.562;8.910;2022-07-11T00:53:54;3.13;;;0.93;;
15043;SDS011;7619;48.562;8.910;2022-07-11T00:56:25;1.97;;;1.60;;
15043;SDS011;7619;48.562;8.910;2022-07-11T00:58:53;5.10;;;1.40;;
15043;SDS011;7619;48.562;8.910;2022-07-11T01:01:24;2.20;;;1.80;;
15043;SDS011;7619;48.562;8.910;2022-07-11T01:06:29;1.17;;;1.07;;
15043;SDS011;7619;48.562;8.910;2022-07-11T01:08:57;1.77;;;0.80;;
15043;SDS011;7619;48.562;8.910;2022-07-11T01:11:27;0.80;;;0.80;;
15043;SDS011;7619;48.562;8.910;2022-07-11T01:13:56;2.57;;;1.10;;
15043;SDS011;7619;48.562;8.910;2022-07-11T01:16:25;2.93;;;1.27;;
15043;SDS011;7619;48.562;8.910;2022-07-11T01:18:54;2.33;;;1.00;;
15043;SDS011;7619;48.562;8.910;2022-07-11T01:21:23;1.23;;;1.20;;
15043;SDS011;7619;48.562;8.910;2022-07-11T01:23:55;1.10;;;1.00;;
15043;SDS011;7619;48.562;8.910;2022-07-11T01:26:25;1.23;;;1.00;;
15043;SDS011;7619;48.562;8.910;2022-07-11T01:28:54;1.63;;;1.40;;
15043;SDS011;7619;48.562;8.910;2022-07-11T01:31:32;4.07;;;1.40;;
15043;SDS011;7619;48.562;8.910;2022-07-11T01:34:01;3.03;;;1.10;;
15043;SDS011;7619;48.562;8.910;2022-07-11T01:36:31;1.93;;;1.60;;
15043;SDS011;7619;48.562;8.910;2022-07-11T01:39:00;1.50;;;1.27;;
15043;SDS011;7619;48.562;8.910;2022-07-11T01:41:28;2.33;;;1.47;;
15043;SDS011;7619;48.562;8.910;2022-07-11T01:43:58;1.90;;;1.30;;
15043;SDS011;7619;48.562;8.910;2022-07-11T01:46:26;3.60;;;1.30;;
15043;SDS011;7619;48.562;8.910;2022-07-11T01:48:55;1.63;;;1.40;;
15043;SDS011;7619;48.562;8.910;2022-07-11T01:51:24;2.03;;;1.23;;
15043;SDS011;7619;48.562;8.910;2022-07-11T01:53:55;2.03;;;1.20;;
15043;SDS011;7619;48.562;8.910;2022-07-11T01:56:23;1.60;;;1.50;;
15043;SDS011;7619;48.562;8.910;2022-07-11T01:58:53;1.20;;;1.00;;
15043;SDS011;7619;48.562;8.910;2022-07-11T02:01:22;1.40;;;1.30;;
15043;SDS011;7619;48.562;8.910;2022-07-11T02:03:51;3.23;;;1.20;;
15043;SDS011;7619;48.562;8.910;2022-07-11T02:06:18;2.83;;;1.27;;
15043;SDS011;7619;48.562;8.910;2022-07-11T02:08:47;1.17;;;0.93;;
15043;SDS011;7619;48.562;8.910;2022-07-11T02:11:15;2.37;;;1.30;;
15043;SDS011;7619;48.562;8.910;2022-07-11T02:13:44;1.93;;;1.40;;
15043;SDS011;7619;48.562;8.910;2022-07-11T02:16:13;3.37;;;1.27;;
15043;SDS011;7619;48.562;8.910;2022-07-11T02:18:42;3.43;;;1.10;;
15043;SDS011;7619;48.562;8.910;2022-07-11T02:21:10;0.97;;;0.93;;
15043;SDS011;7619;48.562;8.910;2022-07-11T02:23:40;3.17;;;1.47;;
15043;SDS011;7619;48.562;8.910;2022-07-11T02:26:08;1.20;;;1.10;;
15043;SDS011;7619;48.562;8.910;2022-07-11T02:28:37;1.37;;;1.27;;
15043;SDS011;7619;48.562;8.910;2022-07-11T02:31:06;4.23;;;1.50;;
15043;SDS011;7619;48.562;8.910;2022-07-11T02:33:35;2.27;;;1.40;;
15043;SDS011;7619;48.562;8.910;2022-07-11T02:36:04;1.67;;;1.33;;
15043;SDS011;7619;48.562;8.910;2022-07-11T02:38:34;7.10;;;1.47;;
15043;SDS011;7619;48.562;8.910;2022-07-11T02:41:03;1.50;;;1.40;;
15043;SDS011;7619;48.562;8.910;2022-07-11T02:43:32;1.67;;;1.57;;
15043;SDS011;7619;48.562;8.910;2022-07-11T02:46:01;1.70;;;1.13;;
15043;SDS011;7619;48.562;8.910;2022-07-11T02:48:31;1.63;;;1.30;;
15043;SDS011;7619;48.562;8.910;2022-07-11T02:51:00;2.60;;;1.30;;
15043;SDS011;7619;48.562;8.910;2022-07-11T02:53:29;2.03;;;1.30;;
15043;SDS011;7619;48.562;8.910;2022-07-11T02:55:58;1.80;;;1.30;;
15043;SDS011;7619;48.562;8.910;2022-07-11T02:58:27;1.40;;;1.30;;
15043;SDS011;7619;48.562;8.910;2022-07-11T03:00:56;2.07;;;1.40;;
15043;SDS011;7619;48.562;8.910;2022-07-11T03:03:25;1.83;;;1.50;;
15043;SDS011;7619;48.562;8.910;2022-07-11T03:05:53;1.27;;;1.17;;
15043;SDS011;7619;48.562;8.910;2022-07-11T03:08:22;1.70;;;1.40;;
15043;SDS011;7619;48.562;8.910;2022-07-11T03:10:51;1.30;;;1.20;;
15043;SDS011;7619;48.562;8.910;2022-07-11T03:13:20;1.80;;;1.20;;
15043;SDS011;7619;48.562;8.910;2022-07-11T03:15:49;2.63;;;1.50;;
15043;SDS011;7619;48.562;8.910;2022-07-11T03:18:18;1.33;;;1.23;;
15043;SDS011;7619;48.562;8.910;2022-07-11T03:20:47;1.60;;;1.50;;
15043;SDS011;7619;48.562;8.910;2022-07-11T03:23:16;1.53;;;1.23;;
15043;SDS011;7619;48.562;8.910;2022-07-11T03:25:45;1.33;;;1.10;;
15043;SDS011;7619;48.562;8.910;2022-07-11T03:28:14;1.60;;;1.33;;
15043;SDS011;7619;48.562;8.910;2022-07-11T03:30:43;1.77;;;1.33;;
15043;SDS011;7619;48.562;8.910;2022-07-11T03:33:12;2.87;;;1.30;;
15043;SDS011;7619;48.562;8.910;2022-07-11T03:35:41;1.87;;;1.27;;
15043;SDS011;7619;48.562;8.910;2022-07-11T03:38:10;2.83;;;1.30;;
15043;SDS011;7619;48.562;8.910;2022-07-11T03:40:41;1.73;;;1.23;;
15043;SDS011;7619;48.562;8.910;2022-07-11T03:43:10;2.47;;;1.40;;
15043;SDS011;7619;48.562;8.910;2022-07-11T03:45:39;1.87;;;1.30;;
15043;SDS011;7619;48.562;8.910;2022-07-11T03:48:08;1.60;;;1.50;;
15043;SDS011;7619;48.562;8.910;2022-07-11T03:50:37;1.30;;;1.20;;
15043;SDS011;7619;48.562;8.910;2022-07-11T03:53:06;1.93;;;1.70;;
15043;SDS011;7619;48.562;8.910;2022-07-11T03:55:34;3.50;;;1.67;;
15043;SDS011;7619;48.562;8.910;2022-07-11T03:58:05;1.77;;;1.10;;
15043;SDS011;7619;48.562;8.910;2022-07-11T04:00:35;2.13;;;1.20;;
15043;SDS011;7619;48.562;8.910;2022-07-11T04:03:02;3.00;;;1.77;;
15043;SDS011;7619;48.562;8.910;2022-07-11T04:05:32;1.50;;;1.40;;
15043;SDS011;7619;48.562;8.910;2022-07-11T04:07:59;1.40;;;1.30;;
15043;SDS011;7619;48.562;8.910;2022-07-11T04:10:28;1.30;;;1.20;;
15043;SDS011;7619;48.562;8.910;2022-07-11T04:12:57;3.23;;;1.47;;
15043;SDS011;7619;48.562;8.910;2022-07-11T04:15:26;3.67;;;1.50;;
15043;SDS011;7619;48.562;8.910;2022-07-11T04:17:55;3.77;;;1.53;;
15043;SDS011;7619;48.562;8.910;2022-07-11T04:20:24;4.00;;;1.37;;
15043;SDS011;7619;48.562;8.910;2022-07-11T04:22:53;1.57;;;1.33;;
15043;SDS011;7619;48.562;8.910;2022-07-11T04:25:22;1.50;;;1.40;;
15043;SDS011;7619;48.562;8.910;2022-07-11T04:27:51;2.47;;;1.80;;
15043;SDS011;7619;48.562;8.910;2022-07-11T04:30:20;1.57;;;1.47;;
15043;SDS011;7619;48.562;8.910;2022-07-11T04:32:48;1.87;;;1.67;;
15043;SDS011;7619;48.562;8.910;2022-07-11T04:35:17;1.50;;;1.40;;
15043;SDS011;7619;48.562;8.910;2022-07-11T04:37:50;1.60;;;1.50;;
15043;SDS011;7619;48.562;8.910;2022-07-11T04:40:19;6.67;;;1.70;;
15043;SDS011;7619;48.562;8.910;2022-07-11T04:42:50;3.73;;;1.80;;
15043;SDS011;7619;48.562;8.910;2022-07-11T04:45:18;2.33;;;1.60;;
15043;SDS011;7619;48.562;8.910;2022-07-11T04:47:47;1.30;;;1.20;;
15043;SDS011;7619;48.562;8.910;2022-07-11T04:50:16;4.20;;;1.60;;
15043;SDS011;7619;48.562;8.910;2022-07-11T04:52:45;2.43;;;1.37;;
15043;SDS011;7619;48.562;8.910;2022-07-11T04:55:14;1.30;;;1.20;;
15043;SDS011;7619;48.562;8.910;2022-07-11T04:57:44;2.23;;;1.27;;
15043;SDS011;7619;48.562;8.910;2022-07-11T05:00:13;2.97;;;1.33;;
15043;SDS011;7619;48.562;8.910;2022-07-11T05:02:42;1.37;;;1.27;;
15043;SDS011;7619;48.562;8.910;2022-07-11T05:05:12;2.90;;;1.60;;
15043;SDS011;7619;48.562;8.910;2022-07-11T05:07:41;1.40;;;1.30;;
15043;SDS011;7619;48.562;8.910;2022-07-11T05:10:10;1.50;;;1.40;;
15043;SDS011;7619;48.562;8.910;2022-07-11T05:12:38;1.57;;;1.47;;
15043;SDS011;7619;48.562;8.910;2022-07-11T05:15:08;2.07;;;1.60;;
15043;SDS011;7619;48.562;8.910;2022-07-11T05:17:37;5.00;;;1.53;;
15043;SDS011;7619;48.562;8.910;2022-07-11T05:20:07;1.50;;;1.40;;
15043;SDS011;7619;48.562;8.910;2022-07-11T05:22:37;1.63;;;1.33;;
15043;SDS011;7619;48.562;8.910;2022-07-11T05:25:06;1.87;;;1.60;;
15043;SDS011;7619;48.562;8.910;2022-07-11T05:27:36;2.20;;;1.90;;
15043;SDS011;7619;48.562;8.910;2022-07-11T05:30:08;1.40;;;1.30;;
15043;SDS011;7619;48.562;8.910;2022-07-11T05:32:38;1.93;;;1.40;;
15043;SDS011;7619;48.562;8.910;2022-07-11T05:35:08;2.63;;;1.60;;
15043;SDS011;7619;48.562;8.910;2022-07-11T05:37:38;1.70;;;1.20;;
15043;SDS011;7619;48.562;8.910;2022-07-11T05:40:08;1.97;;;1.60;;
15043;SDS011;7619;48.562;8.910;2022-07-11T05:42:36;1.87;;;1.63;;
15043;SDS011;7619;48.562;8.910;2022-07-11T05:45:06;3.13;;;1.80;;
15043;SDS011;7619;48.562;8.910;2022-07-11T05:47:36;3.23;;;1.60;;
15043;SDS011;7619;48.562;8.910;2022-07-11T05:50:05;1.33;;;1.23;;
15043;SDS011;7619;48.562;8.910;2022-07-11T05:52:35;2.13;;;1.27;;
15043;SDS011;7619;48.562;8.910;2022-07-11T05:55:05;1.70;;;1.60;;
15043;SDS011;7619;48.562;8.910;2022-07-11T05:57:33;3.00;;;1.40;;
15043;SDS011;7619;48.562;8.910;2022-07-11T06:00:01;3.33;;;1.10;;
15043;SDS011;7619;48.562;8.910;2022-07-11T06:02:30;2.40;;;1.40;;
15043;SDS011;7619;48.562;8.910;2022-07-11T06:04:59;1.07;;;1.00;;
15043;SDS011;7619;48.562;8.910;2022-07-11T06:07:28;2.23;;;1.30;;
15043;SDS011;7619;48.562;8.910;2022-07-11T06:10:14;1.20;;;1.10;;
15043;SDS011;7619;48.562;8.910;2022-07-11T06:12:43;1.73;;;1.10;;
15043;SDS011;7619;48.562;8.910;2022-07-11T06:15:12;1.23;;;0.97;;
15043;SDS011;7619;48.562;8.910;2022-07-11T06:17:41;1.00;;;0.97;;
15043;SDS011;7619;48.562;8.910;2022-07-11T06:20:11;2.70;;;1.10;;
15043;SDS011;7619;48.562;8.910;2022-07-11T06:22:40;1.60;;;1.10;;
15043;SDS011;7619;48.562;8.910;2022-07-11T06:25:09;2.77;;;1.17;;
15043;SDS011;7619;48.562;8.910;2022-07-11T06:27:38;1.80;;;1.20;;
15043;SDS011;7619;48.562;8.910;2022-07-11T06:30:08;1.83;;;1.50;;
15043;SDS011;7619;48.562;8.910;2022-07-11T06:32:35;0.90;;;0.90;;
15043;SDS011;7619;48.562;8.910;2022-07-11T06:35:06;3.17;;;1.33;;
15043;SDS011;7619;48.562;8.910;2022-07-11T06:37:36;1.30;;;1.20;;
15043;SDS011;7619;48.562;8.910;2022-07-11T06:40:06;2.13;;;1.23;;
15043;SDS011;7619;48.562;8.910;2022-07-11T06:42:38;1.83;;;1.50;;
15043;SDS011;7619;48.562;8.910;2022-07-11T06:45:08;2.27;;;1.80;;
15043;SDS011;7619;48.562;8.910;2022-07-11T06:47:38;3.87;;;1.30;;
15043;SDS011;7619;48.562;8.910;2022-07-11T06:50:08;1.70;;;1.30;;
15043;SDS011;7619;48.562;8.910;2022-07-11T06:52:36;1.10;;;1.03;;
15043;SDS011;7619;48.562;8.910;2022-07-11T06:55:05;3.07;;;1.67;;
15043;SDS011;7619;48.562;8.910;2022-07-11T06:57:35;1.67;;;1.40;;
15043;SDS011;7619;48.562;8.910;2022-07-11T07:00:07;1.50;;;1.40;;
15043;SDS011;7619;48.562;8.910;2022-07-11T07:02:36;3.27;;;1.40;;
15043;SDS011;7619;48.562;8.910;2022-07-11T07:05:06;1.53;;;1.43;;
15043;SDS011;7619;48.562;8.910;2022-07-11T07:07:36;2.17;;;1.47;;
15043;SDS011;7619;48.562;8.910;2022-07-11T07:10:06;1.50;;;1.40;;
15043;SDS011;7619;48.562;8.910;2022-07-11T07:12:37;4.03;;;1.40;;
15043;SDS011;7619;48.562;8.910;2022-07-11T07:15:07;1.87;;;1.53;;
15043;SDS011;7619;48.562;8.910;2022-07-11T07:17:37;1.40;;;1.10;;
15043;SDS011;7619;48.562;8.910;2022-07-11T07:20:07;2.13;;;1.27;;
15043;SDS011;7619;48.562;8.910;2022-07-11T07:22:37;1.30;;;1.20;;
15043;SDS011;7619;48.562;8.910;2022-07-11T07:25:15;2.00;;;1.40;;
15043;SDS011;7619;48.562;8.910;2022-07-11T07:27:44;1.83;;;1.03;;
15043;SDS011;7619;48.562;8.910;2022-07-11T07:30:12;2.00;;;1.77;;
15043;SDS011;7619;48.562;8.910;2022-07-11T07:32:41;2.30;;;1.33;;
15043;SDS011;7619;48.562;8.910;2022-07-11T07:35:10;1.30;;;1.20;;
15043;SDS011;7619;48.562;8.910;2022-07-11T07:37:38;1.60;;;1.27;;
15043;SDS011;7619;48.562;8.910;2022-07-11T07:40:07;1.10;;;1.00;;
15043;SDS011;7619;48.562;8.910;2022-07-11T07:42:36;1.60;;;1.30;;
15043;SDS011;7619;48.562;8.910;2022-07-11T07:45:06;0.93;;;0.83;;
15043;SDS011;7619;48.562;8.910;2022-07-11T07:47:36;1.53;;;1.43;;
15043;SDS011;7619;48.562;8.910;2022-07-11T07:50:06;1.67;;;1.20;;
15043;SDS011;7619;48.562;8.910;2022-07-11T07:52:35;1.17;;;1.07;;
15043;SDS011;7619;48.562;8.910;2022-07-11T07:55:06;1.20;;;1.10;;
15043;SDS011;7619;48.562;8.910;2022-07-11T07:57:36;1.13;;;0.90;;
15043;SDS011;7619;48.562;8.910;2022-07-11T08:00:06;2.00;;;0.87;;
15043;SDS011;7619;48.562;8.910;2022-07-11T08:02:52;1.30;;;1.20;;
15043;SDS011;7619;48.562;8.910;2022-07-11T08:05:20;1.03;;;1.00;;
15043;SDS011;7619;48.562;8.910;2022-07-11T08:07:49;2.40;;;1.17;;
15043;SDS011;7619;48.562;8.910;2022-07-11T08:10:18;1.57;;;1.00;;
15043;SDS011;7619;48.562;8.910;2022-07-11T08:12:47;1.97;;;1.47;;
15043;SDS011;7619;48.562;8.910;2022-07-11T08:15:16;2.97;;;0.90;;
15043;SDS011;7619;48.562;8.910;2022-07-11T08:17:45;1.00;;;0.80;;
15043;SDS011;7619;48.562;8.910;2022-07-11T08:20:14;1.40;;;1.03;;
15043;SDS011;7619;48.562;8.910;2022-07-11T08:22:42;1.00;;;0.93;;
15043;SDS011;7619;48.562;8.910;2022-07-11T08:25:11;1.00;;;0.90;;
15043;SDS011;7619;48.562;8.910;2022-07-11T08:27:40;1.23;;;0.77;;
15043;SDS011;7619;48.562;8.910;2022-07-11T08:30:10;1.87;;;0.70;;
15043;SDS011;7619;48.562;8.910;2022-07-11T08:32:39;1.03;;;0.70;;
15043;SDS011;7619;48.562;8.910;2022-07-11T08:35:09;0.80;;;0.80;;
15043;SDS011;7619;48.562;8.910;2022-07-11T08:37:38;0.73;;;0.70;;
15043;SDS011;7619;48.562;8.910;2022-07-11T08:40:08;1.60;;;0.90;;
15043;SDS011;7619;48.562;8.910;2022-07-11T08:42:40;0.80;;;0.80;;
15043;SDS011;7619;48.562;8.910;2022-07-11T08:45:10;0.50;;;0.50;;
15043;SDS011;7619;48.562;8.910;2022-07-11T08:47:40;0.60;;;0.60;;
15043;SDS011;7619;48.562;8.910;2022-07-11T08:50:11;0.50;;;0.50;;
15043;SDS011;7619;48.562;8.910;2022-07-11T08:52:40;1.43;;;0.50;;
15043;SDS011;7619;48.562;8.910;2022-07-11T08:55:09;0.40;;;0.40;;
15043;SDS011;7619;48.562;8.910;2022-07-11T08:57:38;0.60;;;0.60;;
15043;SDS011;7619;48.562;8.910;2022-07-11T09:00:08;0.40;;;0.40;;
15043;SDS011;7619;48.562;8.910;2022-07-11T09:02:36;0.53;;;0.50;;
15043;SDS011;7619;48.562;8.910;2022-07-11T09:05:07;0.47;;;0.47;;
15043;SDS011;7619;48.562;8.910;2022-07-11T09:07:41;0.60;;;0.60;;
15043;SDS011;7619;48.562;8.910;2022-07-11T09:10:12;0.23;;;0.23;;
15043;SDS011;7619;48.562;8.910;2022-07-11T09:12:57;0.70;;;0.40;;
15043;SDS011;7619;48.562;8.910;2022-07-11T09:15:36;0.40;;;0.40;;
15043;SDS011;7619;48.562;8.910;2022-07-11T09:18:28;0.30;;;0.30;;
15043;SDS011;7619;48.562;8.910;2022-07-11T09:20:57;0.30;;;0.30;;
15043;SDS011;7619;48.562;8.910;2022-07-11T09:23:43;0.60;;;0.50;;
15043;SDS011;7619;48.562;8.910;2022-07-11T09:26:30;0.50;;;0.50;;
15043;SDS011;7619;48.562;8.910;2022-07-11T09:29:01;1.27;;;0.50;;
15043;SDS011;7619;48.562;8.910;2022-07-11T09:31:32;1.27;;;0.50;;
15043;SDS011;7619;48.562;8.910;2022-07-11T09:34:02;0.40;;;0.40;;
15043;SDS011;7619;48.562;8.910;2022-07-11T09:36:36;0.40;;;0.40;;
15043;SDS011;7619;48.562;8.910;2022-07-11T09:39:11;0.37;;;0.37;;
15043;SDS011;7619;48.562;8.910;2022-07-11T09:41:42;0.40;;;0.40;;
15043;SDS011;7619;48.562;8.910;2022-07-11T09:44:14;1.97;;;0.67;;
15043;SDS011;7619;48.562;8.910;2022-07-11T09:46:44;1.37;;;0.40;;
15043;SDS011;7619;48.562;8.910;2022-07-11T09:49:16;0.53;;;0.53;;
15043;SDS011;7619;48.562;8.910;2022-07-11T09:51:46;0.60;;;0.57;;
15043;SDS011;7619;48.562;8.910;2022-07-11T09:54:15;0.30;;;0.30;;
15043;SDS011;7619;48.562;8.910;2022-07-11T09:56:44;0.53;;;0.43;;
15043;SDS011;7619;48.562;8.910;2022-07-11T09:59:16;0.43;;;0.43;;
15043;SDS011;7619;48.562;8.910;2022-07-11T10:01:43;0.43;;;0.43;;
15043;SDS011;7619;48.562;8.910;2022-07-11T10:04:13;0.40;;;0.40;;
15043;SDS011;7619;48.562;8.910;2022-07-11T10:06:40;0.43;;;0.40;;
15043;SDS011;7619;48.562;8.910;2022-07-11T10:09:10;0.40;;;0.40;;
15043;SDS011;7619;48.562;8.910;2022-07-11T10:11:37;1.20;;;0.70;;
15043;SDS011;7619;48.562;8.910;2022-07-11T10:14:07;0.30;;;0.30;;
15043;SDS011;7619;48.562;8.910;2022-07-11T10:16:38;0.30;;;0.30;;
15043;SDS011;7619;48.562;8.910;2022-07-11T10:19:24;0.60;;;0.30;;
15043;SDS011;7619;48.562;8.910;2022-07-11T10:21:59;0.53;;;0.53;;
15043;SDS011;7619;48.562;8.910;2022-07-11T10:24:28;0.50;;;0.50;;
15043;SDS011;7619;48.562;8.910;2022-07-11T10:27:06;0.77;;;0.40;;
15043;SDS011;7619;48.562;8.910;2022-07-11T10:29:36;1.07;;;0.60;;
15043;SDS011;7619;48.562;8.910;2022-07-11T10:32:06;0.50;;;0.50;;
15043;SDS011;7619;48.562;8.910;2022-07-11T10:34:34;0.40;;;0.40;;
15043;SDS011;7619;48.562;8.910;2022-07-11T10:37:06;0.67;;;0.43;;
15043;SDS011;7619;48.562;8.910;2022-07-11T10:39:36;0.40;;;0.40;;
15043;SDS011;7619;48.562;8.910;2022-07-11T10:42:07;0.40;;;0.40;;
15043;SDS011;7619;48.562;8.910;2022-07-11T10:44:48;0.93;;;0.63;;
15043;SDS011;7619;48.562;8.910;2022-07-11T10:47:33;0.40;;;0.40;;
15043;SDS011;7619;48.562;8.910;2022-07-11T10:50:07;0.40;;;0.40;;
15043;SDS011;7619;48.562;8.910;2022-07-11T10:52:40;0.77;;;0.60;;
15043;SDS011;7619;48.562;8.910;2022-07-11T10:55:18;0.67;;;0.67;;
15043;SDS011;7619;48.562;8.910;2022-07-11T10:57:54;0.63;;;0.57;;
15043;SDS011;7619;48.562;8.910;2022-07-11T11:00:20;0.50;;;0.50;;
15043;SDS011;7619;48.562;8.910;2022-07-11T11:03:00;0.70;;;0.57;;
15043;SDS011;7619;48.562;8.910;2022-07-11T11:05:44;1.03;;;0.50;;
15043;SDS011;7619;48.562;8.910;2022-07-11T11:11:38;0.57;;;0.57;;
15043;SDS011;7619;48.562;8.910;2022-07-11T11:20:18;0.67;;;0.50;;
15043;SDS011;7619;48.562;8.910;2022-07-11T11:23:08;0.60;;;0.60;;
15043;SDS011;7619;48.562;8.910;2022-07-11T11:25:36;0.70;;;0.60;;
15043;SDS011;7619;48.562;8.910;2022-07-11T11:28:05;0.53;;;0.53;;
15043;SDS011;7619;48.562;8.910;2022-07-11T11:30:35;0.60;;;0.60;;
15043;SDS011;7619;48.562;8.910;2022-07-11T11:33:14;0.37;;;0.37;;
15043;SDS011;7619;48.562;8.910;2022-07-11T11:35:58;0.60;;;0.60;;
15043;SDS011;7619;48.562;8.910;2022-07-11T11:38:27;0.67;;;0.67;;
15043;SDS011;7619;48.562;8.910;2022-07-11T11:40:55;0.77;;;0.60;;
15043;SDS011;7619;48.562;8.910;2022-07-11T11:43:23;0.50;;;0.50;;
15043;SDS011;7619;48.562;8.910;2022-07-11T11:45:52;0.43;;;0.43;;
15043;SDS011;7619;48.562;8.910;2022-07-11T11:48:28;0.60;;;0.60;;
15043;SDS011;7619;48.562;8.910;2022-07-11T11:51:01;0.60;;;0.60;;
15043;SDS011;7619;48.562;8.910;2022-07-11T11:53:34;0.50;;;0.50;;
15043;SDS011;7619;48.562;8.910;2022-07-11T11:56:11;2.17;;;0.70;;
15043;SDS011;7619;48.562;8.910;2022-07-11T11:58:40;0.50;;;0.50;;
15043;SDS011;7619;48.562;8.910;2022-07-11T12:01:10;1.73;;;0.57;;
15043;SDS011;7619;48.562;8.910;2022-07-11T12:03:48;0.70;;;0.70;;
15043;SDS011;7619;48.562;8.910;2022-07-11T12:06:16;0.50;;;0.50;;
15043;SDS011;7619;48.562;8.910;2022-07-11T12:08:46;0.60;;;0.60;;
15043;SDS011;7619;48.562;8.910;2022-07-11T12:11:16;1.70;;;0.60;;
15043;SDS011;7619;48.562;8.910;2022-07-11T12:13:45;0.67;;;0.67;;
15043;SDS011;7619;48.562;8.910;2022-07-11T12:16:13;1.83;;;0.90;;
15043;SDS011;7619;48.562;8.910;2022-07-11T12:19:01;0.77;;;0.70;;
15043;SDS011;7619;48.562;8.910;2022-07-11T12:21:33;1.00;;;0.90;;
15043;SDS011;7619;48.562;8.910;2022-07-11T12:24:02;0.50;;;0.50;;
15043;SDS011;7619;48.562;8.910;2022-07-11T12:26:33;0.70;;;0.70;;
15043;SDS011;7619;48.562;8.910;2022-07-11T12:29:07;0.57;;;0.57;;
15043;SDS011;7619;48.562;8.910;2022-07-11T12:31:45;1.20;;;1.10;;
15043;SDS011;7619;48.562;8.910;2022-07-11T12:34:15;0.60;;;0.60;;
15043;SDS011;7619;48.562;8.910;2022-07-11T12:36:45;1.77;;;0.87;;
15043;SDS011;7619;48.562;8.910;2022-07-11T12:39:23;0.60;;;0.60;;
15043;SDS011;7619;48.562;8.910;2022-07-11T12:41:55;0.50;;;0.50;;
15043;SDS011;7619;48.562;8.910;2022-07-11T12:44:24;0.60;;;0.60;;
15043;SDS011;7619;48.562;8.910;2022-07-11T12:47:10;0.70;;;0.67;;
15043;SDS011;7619;48.562;8.910;2022-07-11T12:49:39;1.63;;;0.57;;
15043;SDS011;7619;48.562;8.910;2022-07-11T12:52:08;0.70;;;0.70;;
15043;SDS011;7619;48.562;8.910;2022-07-11T12:54:45;0.83;;;0.83;;
15043;SDS011;7619;48.562;8.910;2022-07-11T12:57:16;0.97;;;0.47;;
15043;SDS011;7619;48.562;8.910;2022-07-11T12:59:47;0.67;;;0.67;;
15043;SDS011;7619;48.562;8.910;2022-07-11T13:02:16;0.53;;;0.53;;
15043;SDS011;7619;48.562;8.910;2022-07-11T13:04:46;1.50;;;0.80;;
15043;SDS011;7619;48.562;8.910;2022-07-11T13:07:34;0.63;;;0.63;;
15043;SDS011;7619;48.562;8.910;2022-07-11T13:10:22;0.63;;;0.60;;
15043;SDS011;7619;48.562;8.910;2022-07-11T13:12:53;0.70;;;0.70;;
15043;SDS011;7619;48.562;8.910;2022-07-11T13:15:21;0.70;;;0.70;;
15043;SDS011;7619;48.562;8.910;2022-07-11T13:17:52;0.87;;;0.57;;
15043;SDS011;7619;48.562;8.910;2022-07-11T13:20:21;0.70;;;0.70;;
15043;SDS011;7619;48.562;8.910;2022-07-11T13:22:52;0.63;;;0.63;;
15043;SDS011;7619;48.562;8.910;2022-07-11T13:25:22;0.50;;;0.50;;
15043;SDS011;7619;48.562;8.910;2022-07-11T13:27:52;0.83;;;0.83;;
15043;SDS011;7619;48.562;8.910;2022-07-11T13:30:20;0.50;;;0.50;;
15043;SDS011;7619;48.562;8.910;2022-07-11T13:32:53;0.60;;;0.60;;
15043;SDS011;7619;48.562;8.910;2022-07-11T13:35:21;0.50;;;0.50;;
15043;SDS011;7619;48.562;8.910;2022-07-11T13:37:49;0.70;;;0.70;;
15043;SDS011;7619;48.562;8.910;2022-07-11T13:40:19;1.07;;;0.50;;
15043;SDS011;7619;48.562;8.910;2022-07-11T13:42:49;0.80;;;0.60;;
15043;SDS011;7619;48.562;8.910;2022-07-11T13:45:19;0.83;;;0.57;;
15043;SDS011;7619;48.562;8.910;2022-07-11T13:47:50;0.73;;;0.60;;
15043;SDS011;7619;48.562;8.910;2022-07-11T13:50:17;0.60;;;0.60;;
15043;SDS011;7619;48.562;8.910;2022-07-11T13:52:48;1.60;;;1.07;;
15043;SDS011;7619;48.562;8.910;2022-07-11T13:55:18;1.13;;;0.60;;
15043;SDS011;7619;48.562;8.910;2022-07-11T13:57:46;0.60;;;0.60;;
15043;SDS011;7619;48.562;8.910;2022-07-11T14:00:18;1.73;;;1.00;;
15043;SDS011;7619;48.562;8.910;2022-07-11T14:02:48;0.70;;;0.70;;
15043;SDS011;7619;48.562;8.910;2022-07-11T14:05:18;0.93;;;0.87;;
15043;SDS011;7619;48.562;8.910;2022-07-11T14:07:49;1.53;;;0.70;;
15043;SDS011;7619;48.562;8.910;2022-07-11T14:10:18;0.73;;;0.70;;
15043;SDS011;7619;48.562;8.910;2022-07-11T14:12:48;1.33;;;0.90;;
15043;SDS011;7619;48.562;8.910;2022-07-11T14:15:17;0.63;;;0.63;;
15043;SDS011;7619;48.562;8.910;2022-07-11T14:17:46;0.87;;;0.87;;
15043;SDS011;7619;48.562;8.910;2022-07-11T14:20:14;1.00;;;0.90;;
15043;SDS011;7619;48.562;8.910;2022-07-11T14:22:43;0.77;;;0.77;;
15043;SDS011;7619;48.562;8.910;2022-07-11T14:25:12;1.20;;;0.93;;
15043;SDS011;7619;48.562;8.910;2022-07-11T14:27:41;0.77;;;0.73;;
15043;SDS011;7619;48.562;8.910;2022-07-11T14:30:11;1.17;;;0.90;;
15043;SDS011;7619;48.562;8.910;2022-07-11T14:32:40;1.37;;;0.90;;
15043;SDS011;7619;48.562;8.910;2022-07-11T14:35:10;0.73;;;0.73;;
15043;SDS011;7619;48.562;8.910;2022-07-11T14:37:38;0.80;;;0.80;;
15043;SDS011;7619;48.562;8.910;2022-07-11T14:40:07;1.60;;;1.03;;
15043;SDS011;7619;48.562;8.910;2022-07-11T14:42:37;2.60;;;0.67;;
15043;SDS011;7619;48.562;8.910;2022-07-11T14:45:07;2.80;;;1.10;;
15043;SDS011;7619;48.562;8.910;2022-07-11T14:47:37;0.80;;;0.80;;
15043;SDS011;7619;48.562;8.910;2022-07-11T14:50:07;0.73;;;0.73;;
15043;SDS011;7619;48.562;8.910;2022-07-11T14:52:37;1.03;;;0.90;;
15043;SDS011;7619;48.562;8.910;2022-07-11T14:55:07;1.20;;;1.10;;
15043;SDS011;7619;48.562;8.910;2022-07-11T14:57:36;1.40;;;1.03;;
15043;SDS011;7619;48.562;8.910;2022-07-11T15:00:08;1.27;;;1.03;;
15043;SDS011;7619;48.562;8.910;2022-07-11T15:02:38;1.10;;;0.90;;
15043;SDS011;7619;48.562;8.910;2022-07-11T15:05:23;2.77;;;1.07;;
15043;SDS011;7619;48.562;8.910;2022-07-11T15:07:52;1.10;;;1.00;;
15043;SDS011;7619;48.562;8.910;2022-07-11T15:10:39;0.80;;;0.80;;
15043;SDS011;7619;48.562;8.910;2022-07-11T15:13:26;1.33;;;1.10;;
15043;SDS011;7619;48.562;8.910;2022-07-11T15:15:55;0.80;;;0.80;;
15043;SDS011;7619;48.562;8.910;2022-07-11T15:18:24;1.10;;;0.90;;
15043;SDS011;7619;48.562;8.910;2022-07-11T15:20:53;2.13;;;0.80;;
15043;SDS011;7619;48.562;8.910;2022-07-11T15:23:22;2.30;;;1.10;;
15043;SDS011;7619;48.562;8.910;2022-07-11T15:25:50;0.90;;;0.90;;
15043;SDS011;7619;48.562;8.910;2022-07-11T15:28:20;1.13;;;0.93;;
15043;SDS011;7619;48.562;8.910;2022-07-11T15:30:49;1.53;;;1.07;;
15043;SDS011;7619;48.562;8.910;2022-07-11T15:33:18;1.17;;;1.00;;